createdAt,value
2018-09-15T00:02:06.266Z,15.41
2018-09-15T00:04:34.999Z,15.44
2018-09-15T00:07:04.023Z,15.48
2018-09-15T00:09:32.738Z,15.51
2018-09-15T00:12:02.050Z,15.56
2018-09-15T00:14:30.712Z,15.58
2018-09-15T00:16:59.471Z,15.61
2018-09-15T00:19:28.440Z,15.59
2018-09-15T00:21:57.096Z,15.60
2018-09-15T00:24:25.879Z,15.60
2018-09-15T00:26:54.997Z,15.61
2018-09-15T00:29:23.675Z,15.57
2018-09-15T00:31:52.324Z,15.60
2018-09-15T00:34:21.072Z,15.61
2018-09-15T00:36:49.753Z,15.61
2018-09-15T00:39:18.376Z,15.62
2018-09-15T00:41:47.076Z,15.62
2018-09-15T00:44:15.900Z,15.59
2018-09-15T00:46:44.557Z,15.57
2018-09-15T00:49:13.721Z,15.53
2018-09-15T00:51:42.615Z,15.49
2018-09-15T00:54:11.319Z,15.49
2018-09-15T00:56:40.002Z,15.46
2018-09-15T00:59:13.729Z,15.41
2018-09-15T01:01:42.590Z,15.42
2018-09-15T01:04:11.294Z,15.35
2018-09-15T01:06:40.982Z,15.30
2018-09-15T01:09:10.392Z,15.26
2018-09-15T01:11:38.996Z,15.18
2018-09-15T01:14:07.877Z,15.14
2018-09-15T01:16:36.431Z,15.13
2018-09-15T01:19:05.308Z,15.12
2018-09-15T01:21:34.834Z,15.11
2018-09-15T01:24:03.536Z,15.10
2018-09-15T01:26:32.235Z,14.99
2018-09-15T01:29:00.843Z,14.95
2018-09-15T01:31:29.679Z,14.89
2018-09-15T01:33:58.313Z,14.88
2018-09-15T01:36:27.495Z,14.86
2018-09-15T01:38:56.159Z,14.86
2018-09-15T01:41:24.784Z,14.91
2018-09-15T01:43:54.386Z,14.96
2018-09-15T01:46:23.107Z,15.00
2018-09-15T01:48:51.832Z,15.06
2018-09-15T01:51:20.517Z,15.07
2018-09-15T01:53:49.118Z,15.04
2018-09-15T01:56:19.008Z,15.05
2018-09-15T01:58:48.070Z,15.09
2018-09-15T02:01:16.717Z,15.13
2018-09-15T02:03:45.445Z,15.16
2018-09-15T02:06:14.139Z,15.19
2018-09-15T02:08:44.301Z,15.21
2018-09-15T02:11:13.355Z,15.27
2018-09-15T02:13:42.852Z,15.27
2018-09-15T02:16:11.562Z,15.31
2018-09-15T02:18:40.364Z,15.36
2018-09-15T02:21:10.756Z,15.43
2018-09-15T02:23:39.679Z,15.46
2018-09-15T02:26:09.014Z,15.45
2018-09-15T02:28:37.915Z,15.49
2018-09-15T02:31:07.170Z,15.47
2018-09-15T02:33:35.864Z,15.51
2018-09-15T02:36:04.760Z,15.57
2018-09-15T02:38:33.366Z,15.57
2018-09-15T02:41:02.722Z,15.57
2018-09-15T02:43:31.328Z,15.59
2018-09-15T02:46:00.486Z,15.66
2018-09-15T02:48:29.448Z,15.72
2018-09-15T02:50:58.683Z,15.77
2018-09-15T02:53:28.479Z,15.74
2018-09-15T02:55:57.289Z,15.67
2018-09-15T02:58:25.967Z,15.59
2018-09-15T03:00:54.767Z,15.54
2018-09-15T03:03:23.680Z,15.47
2018-09-15T03:05:52.358Z,15.36
2018-09-15T03:08:21.152Z,15.28
2018-09-15T03:10:49.879Z,15.24
2018-09-15T03:13:18.516Z,15.21
2018-09-15T03:15:47.192Z,15.22
2018-09-15T03:18:15.965Z,15.20
2018-09-15T03:20:44.637Z,15.15
2018-09-15T03:23:13.374Z,15.15
2018-09-15T03:25:42.099Z,15.10
2018-09-15T03:28:11.655Z,15.03
2018-09-15T03:30:40.416Z,15.02
2018-09-15T03:33:09.107Z,14.96
2018-09-15T03:35:37.847Z,14.87
2018-09-15T03:38:06.705Z,14.85
2018-09-15T03:40:35.417Z,14.84
2018-09-15T03:43:04.326Z,14.81
2018-09-15T03:45:33.058Z,14.76
2018-09-15T03:48:01.854Z,14.74
2018-09-15T03:50:30.827Z,14.75
2018-09-15T03:52:59.528Z,14.71
2018-09-15T03:55:28.746Z,14.60
2018-09-15T03:57:57.304Z,14.50
2018-09-15T04:00:25.933Z,14.40
2018-09-15T04:02:54.450Z,14.30
2018-09-15T04:05:23.222Z,14.25
2018-09-15T04:07:51.797Z,14.22
2018-09-15T04:10:21.019Z,14.14
2018-09-15T04:12:49.709Z,14.11
2018-09-15T04:15:18.413Z,14.07
2018-09-15T04:17:47.072Z,14.03
2018-09-15T04:20:15.833Z,14.03
2018-09-15T04:22:44.482Z,14.04
2018-09-15T04:25:13.199Z,13.98
2018-09-15T04:27:41.804Z,13.98
2018-09-15T04:30:10.673Z,13.99
2018-09-15T04:32:40.226Z,14.06
2018-09-15T04:35:08.884Z,14.09
2018-09-15T04:37:37.690Z,14.17
2018-09-15T04:40:07.643Z,14.17
2018-09-15T04:42:36.377Z,14.22
2018-09-15T04:45:05.165Z,14.21
2018-09-15T04:47:34.312Z,14.17
2018-09-15T04:50:03.181Z,14.11
2018-09-15T04:52:32.044Z,14.02
2018-09-15T04:55:00.961Z,13.98
2018-09-15T04:57:30.182Z,13.90
2018-09-15T04:59:58.831Z,13.88
2018-09-15T05:02:27.599Z,13.86
2018-09-15T05:04:57.330Z,13.85
2018-09-15T05:07:27.059Z,13.85
2018-09-15T05:09:56.443Z,13.86
2018-09-15T05:12:25.208Z,13.91
2018-09-15T05:14:54.136Z,13.96
2018-09-15T05:17:22.829Z,14.00
2018-09-15T05:19:51.513Z,14.05
2018-09-15T05:22:20.436Z,14.08
2018-09-15T05:24:50.183Z,14.12
2018-09-15T05:27:18.985Z,14.17
2018-09-15T05:29:47.625Z,14.19
2018-09-15T05:32:16.374Z,14.22
2018-09-15T05:34:45.898Z,14.27
2018-09-15T05:37:14.546Z,14.32
2018-09-15T05:39:43.874Z,14.39
2018-09-15T05:42:12.609Z,14.40
2018-09-15T05:44:41.361Z,14.45
2018-09-15T05:47:17.005Z,14.45
2018-09-15T05:49:45.780Z,14.50
2018-09-15T05:52:14.399Z,14.54
2018-09-15T05:54:43.072Z,14.59
2018-09-15T05:57:11.778Z,14.66
2018-09-15T05:59:40.676Z,14.66
2018-09-15T06:02:09.747Z,14.69
2018-09-15T06:04:38.541Z,14.72
2018-09-15T06:07:07.164Z,14.72
2018-09-15T06:09:35.925Z,14.76
2018-09-15T06:12:05.566Z,14.80
2018-09-15T06:14:34.675Z,14.81
2018-09-15T06:17:03.835Z,14.83
2018-09-15T06:19:32.862Z,14.87
2018-09-15T06:22:04.089Z,14.88
2018-09-15T06:24:32.748Z,14.99
2018-09-15T06:27:01.430Z,15.05
2018-09-15T06:29:30.505Z,15.08
2018-09-15T06:32:00.795Z,15.09
2018-09-15T06:34:29.579Z,15.11
2018-09-15T06:36:58.951Z,15.15
2018-09-15T06:39:28.729Z,15.17
2018-09-15T06:41:58.632Z,15.21
2018-09-15T06:44:28.406Z,15.24
2018-09-15T06:46:57.133Z,15.28
2018-09-15T06:49:28.044Z,15.32
2018-09-15T06:51:58.950Z,15.36
2018-09-15T06:54:29.325Z,15.45
2018-09-15T06:56:58.171Z,15.58
2018-09-15T06:59:26.904Z,15.68
2018-09-15T07:01:55.636Z,15.79
2018-09-15T07:04:25.397Z,15.82
2018-09-15T07:06:54.980Z,15.83
2018-09-15T07:09:25.137Z,15.84
2018-09-15T07:11:53.934Z,15.87
2018-09-15T07:14:23.424Z,15.96
2018-09-15T07:16:53.606Z,16.04
2018-09-15T07:19:23.254Z,16.14
2018-09-15T07:21:52.351Z,16.19
2018-09-15T07:24:20.900Z,16.20
2018-09-15T07:26:52.265Z,16.24
2018-09-15T07:29:21.463Z,16.31
2018-09-15T07:31:50.808Z,16.42
2018-09-15T07:34:19.638Z,16.50
2018-09-15T07:36:49.424Z,16.54
2018-09-15T07:39:18.133Z,16.55
2018-09-15T07:41:46.855Z,16.50
2018-09-15T07:44:15.486Z,16.46
2018-09-15T07:46:44.376Z,16.44
2018-09-15T07:49:13.081Z,16.39
2018-09-15T07:51:41.827Z,16.42
2018-09-15T07:54:12.167Z,16.44
2018-09-15T07:56:42.097Z,16.43
2018-09-15T07:59:13.347Z,16.45
2018-09-15T08:01:42.034Z,16.47
2018-09-15T08:04:10.723Z,16.46
2018-09-15T08:06:39.701Z,16.46
2018-09-15T08:09:08.640Z,16.51
2018-09-15T08:11:37.831Z,16.53
2018-09-15T08:14:06.632Z,16.59
2018-09-15T08:16:36.162Z,16.70
2018-09-15T08:19:04.950Z,16.77
2018-09-15T08:21:33.770Z,16.79
2018-09-15T08:24:02.399Z,16.86
2018-09-15T08:26:31.053Z,16.95
2018-09-15T08:29:01.303Z,17.03
2018-09-15T08:31:30.038Z,17.18
2018-09-15T08:33:58.746Z,17.29
2018-09-15T08:36:27.399Z,17.35
2018-09-15T08:38:56.158Z,17.43
2018-09-15T08:41:24.818Z,17.46
2018-09-15T08:43:53.614Z,17.54
2018-09-15T08:46:22.851Z,17.61
2018-09-15T08:48:51.558Z,17.67
2018-09-15T08:51:20.225Z,17.74
2018-09-15T08:53:49.068Z,17.78
2018-09-15T08:56:17.807Z,17.77
2018-09-15T08:58:46.408Z,17.82
2018-09-15T09:01:15.442Z,17.89
2018-09-15T09:03:44.233Z,17.90
2018-09-15T09:06:12.994Z,17.94
2018-09-15T09:08:42.645Z,18.01
2018-09-15T09:11:12.150Z,18.10
2018-09-15T09:13:42.018Z,18.16
2018-09-15T09:16:10.691Z,18.22
2018-09-15T09:18:39.337Z,18.32
2018-09-15T09:21:08.550Z,18.32
2018-09-15T09:23:37.275Z,18.32
2018-09-15T09:26:06.142Z,18.42
2018-09-15T09:28:34.700Z,18.49
2018-09-15T09:31:14.208Z,18.53
2018-09-15T09:33:42.769Z,18.55
2018-09-15T09:36:11.679Z,18.49
2018-09-15T09:38:40.344Z,18.47
2018-09-15T09:41:09.343Z,18.48
2018-09-15T09:43:38.121Z,18.51
2018-09-15T09:46:06.893Z,18.47
2018-09-15T09:48:35.603Z,18.40
2018-09-15T09:51:05.146Z,18.33
2018-09-15T09:53:34.446Z,18.28
2018-09-15T09:56:03.597Z,18.25
2018-09-15T09:58:32.257Z,18.18
2018-09-15T10:01:06.806Z,18.15
2018-09-15T10:03:35.448Z,18.14
2018-09-15T10:06:04.079Z,18.25
2018-09-15T10:08:32.926Z,18.37
2018-09-15T10:11:03.358Z,18.54
2018-09-15T10:13:32.047Z,18.70
2018-09-15T10:16:00.734Z,18.85
2018-09-15T10:18:29.518Z,18.85
2018-09-15T10:20:58.858Z,18.96
2018-09-15T10:23:27.610Z,19.04
2018-09-15T10:25:56.244Z,19.32
2018-09-15T10:28:25.018Z,19.45
2018-09-15T10:30:54.393Z,19.46
2018-09-15T10:33:24.088Z,19.36
2018-09-15T10:35:52.943Z,19.23
2018-09-15T10:38:23.686Z,19.06
2018-09-15T10:40:53.180Z,18.87
2018-09-15T10:43:23.038Z,18.73
2018-09-15T10:45:51.939Z,18.54
2018-09-15T10:48:21.168Z,18.27
2018-09-15T10:50:49.880Z,18.00
2018-09-15T10:53:20.222Z,17.83
2018-09-15T10:55:48.900Z,17.73
2018-09-15T10:58:17.881Z,17.58
2018-09-15T11:00:46.650Z,17.52
2018-09-15T11:03:15.252Z,17.49
2018-09-15T11:05:43.920Z,17.52
2018-09-15T11:08:12.598Z,17.57
2018-09-15T11:10:41.305Z,17.60
2018-09-15T11:13:10.031Z,17.65
2018-09-15T11:15:38.709Z,17.70
2018-09-15T11:18:08.056Z,17.85
2018-09-15T11:20:37.137Z,17.98
2018-09-15T11:23:06.317Z,18.07
2018-09-15T11:25:35.355Z,18.19
2018-09-15T11:28:04.398Z,18.32
2018-09-15T11:30:34.009Z,18.45
2018-09-15T11:33:04.166Z,18.67
2018-09-15T11:35:33.881Z,18.86
2018-09-15T11:38:11.215Z,19.02
2018-09-15T11:40:41.129Z,19.10
2018-09-15T11:43:11.051Z,19.12
2018-09-15T11:45:50.440Z,19.07
2018-09-15T11:48:19.103Z,19.07
2018-09-15T11:50:48.102Z,19.11
2018-09-15T11:53:16.840Z,19.16
2018-09-15T11:55:45.915Z,19.39
2018-09-15T11:58:14.663Z,19.51
2018-09-15T12:00:48.856Z,19.76
2018-09-15T12:03:17.575Z,19.83
2018-09-15T12:05:46.274Z,19.80
2018-09-15T12:08:14.962Z,19.70
2018-09-15T12:10:44.028Z,19.47
2018-09-15T12:13:12.904Z,19.38
2018-09-15T12:15:41.547Z,19.29
2018-09-15T12:18:10.299Z,19.16
2018-09-15T12:20:39.106Z,19.08
2018-09-15T12:23:07.906Z,19.01
2018-09-15T12:25:37.736Z,19.00
2018-09-15T12:28:06.613Z,18.97
2018-09-15T12:30:35.796Z,18.97
2018-09-15T12:33:04.552Z,18.95
2018-09-15T12:35:33.366Z,18.99
2018-09-15T12:38:02.306Z,19.02
2018-09-15T12:40:31.187Z,19.01
2018-09-15T12:42:59.823Z,19.00
2018-09-15T12:45:29.179Z,19.01
2018-09-15T12:47:57.902Z,19.02
2018-09-15T12:50:27.989Z,19.00
2018-09-15T12:52:56.924Z,19.04
2018-09-15T12:55:25.639Z,19.07
2018-09-15T12:57:54.480Z,19.08
2018-09-15T13:00:23.304Z,19.10
2018-09-15T13:02:52.198Z,19.06
2018-09-15T13:05:21.028Z,19.07
2018-09-15T13:07:50.483Z,19.07
2018-09-15T13:10:19.286Z,19.08
2018-09-15T13:12:49.452Z,19.13
2018-09-15T13:15:18.331Z,19.16
2018-09-15T13:17:47.165Z,19.25
2018-09-15T13:20:15.804Z,19.30
2018-09-15T13:22:44.942Z,19.36
2018-09-15T13:25:14.454Z,19.36
2018-09-15T13:27:43.187Z,19.38
2018-09-15T13:30:12.151Z,19.44
2018-09-15T13:32:40.873Z,19.50
2018-09-15T13:35:10.316Z,19.53
2018-09-15T13:37:38.900Z,19.58
2018-09-15T13:40:07.881Z,19.69
2018-09-15T13:42:36.588Z,19.76
2018-09-15T13:45:05.531Z,20.22
2018-09-15T13:47:34.290Z,20.28
2018-09-15T13:50:03.444Z,20.51
2018-09-15T13:52:32.146Z,20.86
2018-09-15T13:55:00.856Z,21.18
2018-09-15T13:57:29.537Z,21.20
2018-09-15T13:59:58.506Z,21.16
2018-09-15T14:02:27.272Z,20.99
2018-09-15T14:07:55.559Z,20.46
2018-09-15T14:10:25.066Z,20.27
2018-09-15T14:12:54.016Z,20.17
2018-09-15T14:15:22.831Z,19.97
2018-09-15T14:17:52.594Z,19.84
2018-09-15T14:20:21.439Z,19.69
2018-09-15T14:22:50.245Z,19.65
2018-09-15T14:25:18.834Z,19.57
2018-09-15T14:27:48.257Z,19.52
2018-09-15T14:30:16.927Z,19.48
2018-09-15T14:32:45.730Z,19.48
2018-09-15T14:35:14.482Z,19.46
2018-09-15T14:37:43.190Z,19.47
2018-09-15T14:40:11.915Z,19.49
2018-09-15T14:42:40.832Z,19.43
2018-09-15T14:45:09.721Z,19.40
2018-09-15T14:47:38.335Z,19.41
2018-09-15T14:50:07.412Z,19.39
2018-09-15T14:52:37.136Z,19.38
2018-09-15T14:55:06.215Z,19.37
2018-09-15T14:57:35.927Z,19.46
2018-09-15T15:00:05.186Z,19.48
2018-09-15T15:02:34.164Z,19.56
2018-09-15T15:05:02.905Z,19.88
2018-09-15T15:07:31.595Z,20.03
2018-09-15T15:10:00.838Z,20.02
2018-09-15T15:12:30.116Z,20.05
2018-09-15T15:14:58.785Z,20.00
2018-09-15T15:17:27.490Z,20.12
2018-09-15T15:19:57.363Z,20.14
2018-09-15T15:22:26.081Z,20.17
2018-09-15T15:24:54.916Z,20.11
2018-09-15T15:27:24.582Z,20.09
2018-09-15T15:29:54.036Z,20.13
2018-09-15T15:32:23.696Z,20.13
2018-09-15T15:34:52.461Z,20.05
2018-09-15T15:37:21.366Z,20.02
2018-09-15T15:39:50.165Z,20.20
2018-09-15T15:42:19.775Z,20.32
2018-09-15T15:44:49.733Z,20.28
2018-09-15T15:47:18.417Z,20.12
2018-09-15T15:49:47.878Z,19.97
2018-09-15T15:52:16.963Z,19.84
2018-09-15T15:54:46.074Z,19.77
2018-09-15T15:57:14.626Z,19.69
2018-09-15T15:59:43.345Z,19.59
2018-09-15T16:02:12.135Z,19.53
2018-09-15T16:04:40.729Z,19.48
2018-09-15T16:07:09.676Z,19.45
2018-09-15T16:09:38.507Z,19.40
2018-09-15T16:12:07.389Z,19.37
2018-09-15T16:14:36.916Z,19.34
2018-09-15T16:17:05.644Z,19.31
2018-09-15T16:19:34.436Z,19.29
2018-09-15T16:22:03.175Z,19.29
2018-09-15T16:24:31.832Z,19.30
2018-09-15T16:27:00.579Z,19.27
2018-09-15T16:29:29.634Z,19.30
2018-09-15T16:31:59.455Z,19.28
2018-09-15T16:34:28.581Z,19.27
2018-09-15T16:36:57.376Z,19.24
2018-09-15T16:39:25.962Z,19.20
2018-09-15T16:41:54.700Z,19.21
2018-09-15T16:44:23.913Z,19.22
2018-09-15T16:46:53.399Z,19.29
2018-09-15T16:49:22.050Z,19.41
2018-09-15T16:51:51.036Z,19.46
2018-09-15T16:54:19.704Z,19.54
2018-09-15T16:56:49.404Z,19.56
2018-09-15T16:59:18.249Z,19.55
2018-09-15T17:01:48.543Z,19.50
2018-09-15T17:04:18.350Z,19.41
2018-09-15T17:06:47.581Z,19.34
2018-09-15T17:09:17.135Z,19.24
2018-09-15T17:11:46.456Z,19.20
2018-09-15T17:14:15.352Z,19.15
2018-09-15T17:16:46.258Z,19.11
2018-09-15T17:19:14.799Z,19.03
2018-09-15T17:21:43.516Z,19.02
2018-09-15T17:24:12.182Z,19.00
2018-09-15T17:26:40.905Z,18.98
2018-09-15T17:29:11.435Z,18.98
2018-09-15T17:31:40.064Z,18.92
2018-09-15T17:34:09.808Z,18.92
2018-09-15T17:36:38.406Z,18.90
2018-09-15T17:39:09.756Z,18.86
2018-09-15T17:41:39.028Z,18.83
2018-09-15T17:44:08.691Z,18.81
2018-09-15T17:46:37.715Z,18.81
2018-09-15T17:49:06.646Z,18.80
2018-09-15T17:51:36.837Z,18.75
2018-09-15T17:54:06.128Z,18.70
2018-09-15T17:56:35.248Z,18.68
2018-09-15T17:59:05.413Z,18.66
2018-09-15T18:01:36.167Z,18.61
2018-09-15T18:04:05.743Z,18.54
2018-09-15T18:06:35.834Z,18.53
2018-09-15T18:09:06.539Z,18.48
2018-09-15T18:11:35.425Z,18.44
2018-09-15T18:14:04.845Z,18.41
2018-09-15T18:16:33.857Z,18.37
2018-09-15T18:19:05.798Z,18.33
2018-09-15T18:21:47.180Z,18.27
2018-09-15T18:24:16.786Z,18.15
2018-09-15T18:26:45.635Z,18.09
2018-09-15T18:29:14.534Z,18.01
2018-09-15T18:31:45.455Z,17.96
2018-09-15T18:34:14.219Z,17.92
2018-09-15T18:36:43.796Z,17.85
2018-09-15T18:39:12.527Z,17.79
2018-09-15T18:41:41.448Z,17.67
2018-09-15T18:44:10.573Z,17.61
2018-09-15T18:46:40.180Z,17.54
2018-09-15T18:49:09.035Z,17.47
2018-09-15T18:51:38.229Z,17.42
2018-09-15T18:54:07.245Z,17.41
2018-09-15T18:56:38.015Z,17.36
2018-09-15T18:59:07.042Z,17.32
2018-09-15T19:01:38.100Z,17.28
2018-09-15T19:04:07.066Z,17.30
2018-09-15T19:06:36.652Z,17.28
2018-09-15T19:09:08.518Z,17.29
2018-09-15T19:11:38.916Z,17.30
2018-09-15T19:14:07.710Z,17.28
2018-09-15T19:16:36.508Z,17.26
2018-09-15T19:19:06.204Z,17.25
2018-09-15T19:21:36.477Z,17.28
2018-09-15T19:24:05.184Z,17.26
2018-09-15T19:26:35.404Z,17.23
2018-09-15T19:29:04.800Z,17.20
2018-09-15T19:31:33.650Z,17.19
2018-09-15T19:34:03.196Z,17.17
2018-09-15T19:36:31.910Z,17.14
2018-09-15T19:39:00.640Z,17.14
2018-09-15T19:41:29.786Z,17.13
2018-09-15T19:43:59.149Z,17.09
2018-09-15T19:46:29.023Z,17.05
2018-09-15T19:49:44.912Z,17.01
2018-09-15T19:52:13.549Z,16.98
2018-09-15T19:54:42.982Z,16.93
2018-09-15T19:57:11.764Z,16.88
2018-09-15T19:59:41.697Z,16.82
2018-09-15T20:02:12.462Z,16.75
2018-09-15T20:04:41.376Z,16.69
2018-09-15T20:08:16.560Z,16.61
2018-09-15T20:10:45.820Z,16.51
2018-09-15T20:13:15.375Z,16.47
2018-09-15T20:15:42.838Z,16.42
2018-09-15T20:18:11.681Z,16.40
2018-09-15T20:20:39.128Z,16.34
2018-09-15T20:23:08.461Z,16.33
2018-09-15T20:25:38.094Z,16.26
2018-09-15T20:28:07.965Z,16.22
2018-09-15T20:30:38.966Z,16.19
2018-09-15T20:33:08.854Z,16.16
2018-09-15T20:35:38.948Z,16.13
2018-09-15T20:38:07.645Z,16.13
2018-09-15T20:40:38.336Z,16.10
2018-09-15T20:43:07.954Z,16.05
2018-09-15T20:45:36.569Z,16.04
2018-09-15T20:48:05.364Z,16.00
2018-09-15T20:50:35.661Z,15.96
2018-09-15T20:53:04.304Z,15.92
2018-09-15T20:55:33.253Z,15.89
2018-09-15T20:58:02.035Z,15.88
2018-09-15T21:00:31.715Z,15.87
2018-09-15T21:03:00.602Z,15.85
2018-09-15T21:05:29.324Z,15.81
2018-09-15T21:07:58.025Z,15.86
2018-09-15T21:10:26.672Z,15.81
2018-09-15T21:12:56.485Z,15.79
2018-09-15T21:15:26.368Z,15.76
2018-09-15T21:17:55.231Z,15.73
2018-09-15T21:20:24.254Z,15.68
2018-09-15T21:22:53.212Z,15.64
2018-09-15T21:25:22.165Z,15.64
2018-09-15T21:27:51.121Z,15.62
2018-09-15T21:30:20.772Z,15.55
2018-09-15T21:32:50.408Z,15.57
2018-09-15T21:35:19.847Z,15.56
2018-09-15T21:37:49.657Z,15.54
2018-09-15T21:40:18.484Z,15.50
2018-09-15T21:42:48.940Z,15.48
2018-09-15T21:45:18.528Z,15.45
2018-09-15T21:47:48.150Z,15.44
2018-09-15T21:50:16.927Z,15.42
2018-09-15T21:52:47.401Z,15.43
2018-09-15T21:55:16.245Z,15.41
2018-09-15T21:57:47.056Z,15.36
2018-09-15T22:00:15.845Z,15.37
2018-09-15T22:02:44.732Z,15.34
2018-09-15T22:05:13.573Z,15.34
2018-09-15T22:07:42.374Z,15.31
2018-09-15T22:10:11.097Z,15.27
2018-09-15T22:12:40.875Z,15.27
2018-09-15T22:15:26.934Z,15.26
2018-09-15T22:17:57.420Z,15.21
2018-09-15T22:20:26.106Z,15.16
2018-09-15T22:22:55.833Z,15.14
2018-09-15T22:25:25.645Z,15.13
2018-09-15T22:27:54.453Z,15.18
2018-09-15T22:30:24.386Z,15.20
2018-09-15T22:32:54.945Z,15.20
2018-09-15T22:35:23.754Z,15.15
2018-09-15T22:37:52.341Z,15.09
2018-09-15T22:40:20.919Z,15.07
2018-09-15T22:42:49.558Z,15.06
2018-09-15T22:45:18.279Z,15.04
2018-09-15T22:47:47.074Z,15.05
2018-09-15T22:50:15.798Z,15.02
2018-09-15T22:52:44.437Z,14.99
2018-09-15T22:55:13.186Z,14.97
2018-09-15T22:57:41.899Z,14.94
2018-09-15T23:00:10.742Z,14.95
2018-09-15T23:02:39.394Z,14.94
2018-09-15T23:05:08.299Z,14.92
2018-09-15T23:07:38.417Z,14.90
2018-09-15T23:10:07.099Z,14.87
2018-09-15T23:12:42.451Z,14.86
2018-09-15T23:15:13.117Z,14.83
2018-09-15T23:17:41.837Z,14.77
2018-09-15T23:20:10.827Z,14.76
2018-09-15T23:22:39.402Z,14.74
2018-09-15T23:25:08.396Z,14.72
2018-09-15T23:27:38.095Z,14.75
2018-09-15T23:30:08.571Z,14.75
2018-09-15T23:32:37.265Z,14.72
2018-09-15T23:35:06.601Z,14.68
2018-09-15T23:37:37.028Z,14.66
2018-09-15T23:40:05.670Z,14.65
2018-09-15T23:42:34.716Z,14.61
2018-09-15T23:45:05.052Z,14.60
2018-09-15T23:47:35.147Z,14.60
2018-09-15T23:50:05.554Z,14.60
2018-09-15T23:52:34.587Z,14.62
2018-09-15T23:55:03.390Z,14.59
2018-09-15T23:57:33.176Z,14.58
